HAZ2721 ZSHC-ZJQH
Flight info
| Callsign | HAZ2721 |
|---|---|
| Flight time | N/A |
| Altitude | 34100 |
| Route | ELNEX A599 PLT W19 NOMAR W18 NLG W23 ZUH R200 BIGRO G221 ANPIM |
| Aircraft | A321/M-SDE3FGHIRWY/LB1 |
Departure
| Time | N/A |
|---|---|
| Airport | Hangzhou Xiaoshan International Airport (ZSHC) |
Arrival
| Time | 2026-05-05 14:14 |
|---|---|
| Airport | Qionghai Bo'ao Airport (ZJQH) |
| Time | Latitude | Longitude | Altitude | Speed | Heading |
|---|---|---|---|---|---|
| 2026-05-05 13:28 | 22.17306 | 113.33507 | 34093 ft | 426 kts | 252° |
| 2026-05-05 13:28 | 22.16199 | 113.30533 | 34094 ft | 426 kts | 252° |
| 2026-05-05 13:29 | 22.13983 | 113.24595 | 34100 ft | 427 kts | 252° |
| 2026-05-05 13:29 | 22.11654 | 113.18694 | 34102 ft | 429 kts | 250° |
| 2026-05-05 13:30 | 22.09175 | 113.12843 | 34104 ft | 429 kts | 250° |
| 2026-05-05 13:30 | 22.06690 | 113.06983 | 34106 ft | 429 kts | 250° |
| 2026-05-05 13:31 | 22.04251 | 113.01152 | 34081 ft | 430 kts | 250° |
| 2026-05-05 13:31 | 22.01862 | 112.95249 | 34083 ft | 429 kts | 251° |
| 2026-05-05 13:32 | 21.99575 | 112.89300 | 34100 ft | 430 kts | 252° |
| 2026-05-05 13:32 | 21.97294 | 112.83351 | 34108 ft | 430 kts | 252° |
| 2026-05-05 13:33 | 21.94960 | 112.77416 | 34110 ft | 431 kts | 251° |
| 2026-05-05 13:33 | 21.92556 | 112.71501 | 34094 ft | 431 kts | 251° |
| 2026-05-05 13:34 | 21.90143 | 112.65588 | 34108 ft | 432 kts | 251° |
| 2026-05-05 13:34 | 21.87724 | 112.59617 | 34096 ft | 440 kts | 251° |
| 2026-05-05 13:35 | 21.85271 | 112.53530 | 34098 ft | 445 kts | 251° |
| 2026-05-05 13:35 | 21.82832 | 112.47399 | 34100 ft | 446 kts | 251° |
| 2026-05-05 13:36 | 21.80404 | 112.41238 | 34099 ft | 448 kts | 251° |
| 2026-05-05 13:36 | 21.77961 | 112.35072 | 34102 ft | 449 kts | 251° |
| 2026-05-05 13:37 | 21.75499 | 112.28895 | 34103 ft | 449 kts | 251° |
| 2026-05-05 13:37 | 21.73040 | 112.22726 | 34107 ft | 449 kts | 251° |
| 2026-05-05 13:38 | 21.70573 | 112.16550 | 34107 ft | 449 kts | 251° |
| 2026-05-05 13:38 | 21.68106 | 112.10379 | 34101 ft | 450 kts | 251° |
| 2026-05-05 13:39 | 21.65638 | 112.04196 | 34106 ft | 450 kts | 251° |
| 2026-05-05 13:39 | 21.63168 | 111.98011 | 34110 ft | 450 kts | 251° |
| 2026-05-05 13:40 | 21.60686 | 111.91833 | 34110 ft | 451 kts | 251° |
| 2026-05-05 13:40 | 21.58195 | 111.85647 | 34089 ft | 451 kts | 250° |
| 2026-05-05 13:41 | 21.54831 | 111.79913 | 34089 ft | 461 kts | 234° |
| 2026-05-05 13:41 | 21.50644 | 111.74669 | 34082 ft | 463 kts | 234° |
| 2026-05-05 13:42 | 21.47168 | 111.70303 | 34076 ft | 464 kts | 234° |
| 2026-05-05 13:42 | 21.42271 | 111.64137 | 34086 ft | 465 kts | 234° |
| 2026-05-05 13:43 | 21.38075 | 111.58864 | 34086 ft | 465 kts | 234° |
| 2026-05-05 13:43 | 21.34581 | 111.54482 | 34087 ft | 465 kts | 234° |
| 2026-05-05 13:44 | 21.30385 | 111.49223 | 34089 ft | 464 kts | 234° |
| 2026-05-05 13:44 | 21.26189 | 111.43963 | 34096 ft | 464 kts | 234° |
| 2026-05-05 13:45 | 21.21995 | 111.38712 | 34094 ft | 464 kts | 234° |
| 2026-05-05 13:45 | 21.17797 | 111.33461 | 34097 ft | 464 kts | 234° |
| 2026-05-05 13:46 | 21.13609 | 111.28226 | 34095 ft | 464 kts | 233° |
| 2026-05-05 13:46 | 21.09402 | 111.22985 | 34093 ft | 464 kts | 233° |
| 2026-05-05 13:47 | 21.05198 | 111.17752 | 34087 ft | 463 kts | 233° |
| 2026-05-05 13:47 | 21.00998 | 111.12517 | 34085 ft | 463 kts | 233° |
| 2026-05-05 13:48 | 20.96800 | 111.07282 | 34088 ft | 463 kts | 233° |
| 2026-05-05 13:48 | 20.92604 | 111.02054 | 34083 ft | 463 kts | 233° |
| 2026-05-05 13:49 | 20.88425 | 110.96814 | 34091 ft | 463 kts | 233° |
| 2026-05-05 13:49 | 20.84244 | 110.91571 | 34088 ft | 463 kts | 233° |
| 2026-05-05 13:50 | 20.80058 | 110.86337 | 34085 ft | 463 kts | 233° |
| 2026-05-05 13:50 | 20.75876 | 110.81107 | 34084 ft | 463 kts | 233° |
| 2026-05-05 13:51 | 20.71688 | 110.75882 | 34082 ft | 463 kts | 233° |
| 2026-05-05 13:51 | 20.67494 | 110.70655 | 34084 ft | 464 kts | 233° |
| 2026-05-05 13:52 | 20.63295 | 110.65423 | 34085 ft | 464 kts | 233° |
| 2026-05-05 13:52 | 20.59098 | 110.60193 | 34083 ft | 464 kts | 233° |
| 2026-05-05 13:53 | 20.54903 | 110.54972 | 34084 ft | 464 kts | 233° |
| 2026-05-05 13:53 | 20.50602 | 110.49826 | 34071 ft | 468 kts | 226° |
| 2026-05-05 13:54 | 20.45312 | 110.45696 | 34075 ft | 473 kts | 218° |
| 2026-05-05 13:54 | 20.39881 | 110.41727 | 34075 ft | 474 kts | 219° |
| 2026-05-05 13:55 | 20.34449 | 110.37742 | 34072 ft | 474 kts | 219° |
| 2026-05-05 13:55 | 20.29014 | 110.33751 | 34072 ft | 474 kts | 219° |
| 2026-05-05 13:56 | 20.23568 | 110.29771 | 34067 ft | 474 kts | 218° |
| 2026-05-05 13:56 | 20.18131 | 110.25804 | 34081 ft | 474 kts | 218° |
| 2026-05-05 13:57 | 20.12700 | 110.21840 | 34077 ft | 473 kts | 218° |
| 2026-05-05 13:57 | 20.07280 | 110.17881 | 34052 ft | 473 kts | 218° |
| 2026-05-05 13:58 | 20.04563 | 110.15901 | 33438 ft | 472 kts | 218° |
| 2026-05-05 13:58 | 20.01829 | 110.13974 | 32591 ft | 471 kts | 214° |
| 2026-05-05 13:58 | 19.98902 | 110.12384 | 31417 ft | 474 kts | 208° |
| 2026-05-05 13:58 | 19.95892 | 110.10931 | 30151 ft | 477 kts | 208° |
| 2026-05-05 13:59 | 19.89795 | 110.08005 | 26981 ft | 486 kts | 207° |
| 2026-05-05 13:59 | 19.86707 | 110.06519 | 25377 ft | 490 kts | 207° |
| 2026-05-05 14:00 | 19.80512 | 110.03542 | 21887 ft | 482 kts | 207° |
| 2026-05-05 14:00 | 19.78476 | 110.02565 | 20913 ft | 471 kts | 207° |
| 2026-05-05 14:00 | 19.74571 | 110.00688 | 19206 ft | 467 kts | 206° |
| 2026-05-05 14:00 | 19.71637 | 109.99271 | 18706 ft | 458 kts | 206° |
| 2026-05-05 14:01 | 19.68763 | 109.97880 | 18098 ft | 451 kts | 206° |
| 2026-05-05 14:01 | 19.65925 | 109.96505 | 17331 ft | 447 kts | 206° |
| 2026-05-05 14:01 | 19.63105 | 109.95143 | 16608 ft | 442 kts | 206° |
| 2026-05-05 14:01 | 19.60312 | 109.93800 | 15902 ft | 439 kts | 206° |
| 2026-05-05 14:02 | 19.57553 | 109.92477 | 15224 ft | 434 kts | 206° |
| 2026-05-05 14:02 | 19.54895 | 109.91203 | 14656 ft | 428 kts | 206° |
| 2026-05-05 14:02 | 19.52211 | 109.89914 | 13985 ft | 424 kts | 206° |
| 2026-05-05 14:02 | 19.49504 | 109.88612 | 13399 ft | 417 kts | 206° |
| 2026-05-05 14:03 | 19.46883 | 109.87359 | 12844 ft | 410 kts | 204° |
| 2026-05-05 14:03 | 19.44164 | 109.86562 | 12285 ft | 405 kts | 188° |
| 2026-05-05 14:03 | 19.41365 | 109.86656 | 11740 ft | 403 kts | 170° |
| 2026-05-05 14:03 | 19.38753 | 109.87645 | 11337 ft | 396 kts | 152° |
| 2026-05-05 14:04 | 19.36588 | 109.89353 | 11218 ft | 382 kts | 136° |
| 2026-05-05 14:04 | 19.35005 | 109.91536 | 11097 ft | 368 kts | 120° |
| 2026-05-05 14:04 | 19.34014 | 109.93979 | 10974 ft | 355 kts | 111° |
| 2026-05-05 14:04 | 19.33165 | 109.96383 | 10855 ft | 342 kts | 110° |
| 2026-05-05 14:05 | 19.32349 | 109.98692 | 10746 ft | 328 kts | 110° |
| 2026-05-05 14:05 | 19.31571 | 110.00897 | 10508 ft | 313 kts | 110° |
| 2026-05-05 14:05 | 19.30819 | 110.03030 | 10112 ft | 305 kts | 110° |
| 2026-05-05 14:05 | 19.30090 | 110.05111 | 9932 ft | 300 kts | 110° |
| 2026-05-05 14:06 | 19.29364 | 110.07188 | 9809 ft | 301 kts | 110° |
| 2026-05-05 14:06 | 19.28638 | 110.09274 | 9243 ft | 303 kts | 110° |
| 2026-05-05 14:06 | 19.27914 | 110.11347 | 8677 ft | 300 kts | 110° |
| 2026-05-05 14:06 | 19.27199 | 110.13396 | 8175 ft | 295 kts | 110° |
| 2026-05-05 14:07 | 19.26489 | 110.15428 | 7610 ft | 293 kts | 110° |
| 2026-05-05 14:07 | 19.25786 | 110.17438 | 7103 ft | 290 kts | 110° |
| 2026-05-05 14:07 | 19.25098 | 110.19394 | 6867 ft | 275 kts | 110° |
| 2026-05-05 14:07 | 19.24452 | 110.21233 | 6730 ft | 258 kts | 110° |
| 2026-05-05 14:08 | 19.23836 | 110.22993 | 6619 ft | 254 kts | 110° |
| 2026-05-05 14:08 | 19.23223 | 110.24744 | 6507 ft | 253 kts | 111° |
| 2026-05-05 14:08 | 19.22671 | 110.26510 | 6221 ft | 256 kts | 98° |
| 2026-05-05 14:08 | 19.22941 | 110.28340 | 5812 ft | 256 kts | 60° |
| 2026-05-05 14:09 | 19.24191 | 110.29606 | 5532 ft | 250 kts | 25° |
| 2026-05-05 14:09 | 19.25788 | 110.30321 | 5201 ft | 249 kts | 23° |
| 2026-05-05 14:09 | 19.27337 | 110.31201 | 4853 ft | 250 kts | 35° |
| 2026-05-05 14:09 | 19.28643 | 110.32372 | 4498 ft | 250 kts | 47° |
| 2026-05-05 14:10 | 19.29673 | 110.33804 | 4229 ft | 241 kts | 64° |
| 2026-05-05 14:10 | 19.30149 | 110.35464 | 3791 ft | 236 kts | 93° |
| 2026-05-05 14:10 | 19.29671 | 110.37076 | 3398 ft | 230 kts | 127° |
| 2026-05-05 14:10 | 19.28426 | 110.38114 | 2846 ft | 233 kts | 156° |
| 2026-05-05 14:11 | 19.26876 | 110.38639 | 2403 ft | 234 kts | 166° |
| 2026-05-05 14:11 | 19.25283 | 110.38948 | 2103 ft | 233 kts | 166° |
| 2026-05-05 14:11 | 19.23791 | 110.39499 | 1907 ft | 223 kts | 153° |
| 2026-05-05 14:11 | 19.22451 | 110.40259 | 1605 ft | 212 kts | 149° |
| 2026-05-05 14:12 | 19.21191 | 110.41025 | 1339 ft | 201 kts | 149° |
| 2026-05-05 14:12 | 19.20048 | 110.41717 | 1130 ft | 177 kts | 149° |
| 2026-05-05 14:12 | 19.19030 | 110.42331 | 903 ft | 160 kts | 150° |
| 2026-05-05 14:12 | 19.18093 | 110.42896 | 691 ft | 152 kts | 149° |
| 2026-05-05 14:13 | 19.17187 | 110.43446 | 477 ft | 148 kts | 149° |
| 2026-05-05 14:13 | 19.16293 | 110.43985 | 247 ft | 147 kts | 150° |
| 2026-05-05 14:13 | 19.15409 | 110.44518 | 67 ft | 147 kts | 150° |
| 2026-05-05 14:13 | 19.14598 | 110.45006 | 25 ft | 108 kts | 150° |
| 2026-05-05 14:14 | 19.14111 | 110.45297 | 27 ft | 57 kts | 150° |
| 2026-05-05 14:14 | 19.13872 | 110.45443 | 27 ft | 33 kts | 150° |
| 2026-05-05 14:14 | 19.13682 | 110.45558 | 26 ft | 30 kts | 150° |
| 2026-05-05 14:14 | 19.13494 | 110.45671 | 26 ft | 37 kts | 150° |
| 2026-05-05 14:15 | 19.13394 | 110.45781 | 27 ft | 7 kts | 68° |
| 2026-05-05 14:15 | 19.13439 | 110.45820 | 26 ft | 10 kts | 46° |
| 2026-05-05 14:15 | 19.13492 | 110.45854 | 25 ft | 9 kts | 359° |
| 2026-05-05 14:15 | 19.13555 | 110.45832 | 25 ft | 11 kts | 333° |
| 2026-05-05 14:16 | 19.13620 | 110.45793 | 24 ft | 10 kts | 330° |
| 2026-05-05 14:16 | 19.13682 | 110.45756 | 24 ft | 10 kts | 330° |
| 2026-05-05 14:16 | 19.13742 | 110.45719 | 24 ft | 10 kts | 330° |
| 2026-05-05 14:16 | 19.13800 | 110.45684 | 24 ft | 9 kts | 330° |
| 2026-05-05 14:17 | 19.13856 | 110.45650 | 24 ft | 9 kts | 330° |
| 2026-05-05 14:17 | 19.13912 | 110.45616 | 24 ft | 9 kts | 330° |
| 2026-05-05 14:17 | 19.13966 | 110.45584 | 24 ft | 8 kts | 331° |
| 2026-05-05 14:17 | 19.14014 | 110.45555 | 24 ft | 8 kts | 331° |
| 2026-05-05 14:18 | 19.14071 | 110.45540 | 25 ft | 11 kts | 11° |
| 2026-05-05 14:18 | 19.14122 | 110.45636 | 24 ft | 16 kts | 103° |
| 2026-05-05 14:18 | 19.14064 | 110.45679 | 24 ft | 9 kts | 154° |
| 2026-05-05 14:18 | 19.14048 | 110.45726 | 25 ft | 6 kts | 57° |
| 2026-05-05 14:19 | 19.14070 | 110.45761 | 24 ft | 4 kts | 59° |
| 2026-05-05 14:19 | 19.14071 | 110.45762 | 24 ft | 0 kts | 59° |